Time;durP1;ratioP1;P1;durP2;ratioP2;P2;SDS_P1;SDS_P2;PMS_P1;PMS_P2;Temp;Humidity;BMP_temperature;BMP_pressure;BME280_temperature;BME280_humidity;BME280_pressure;Samples;Min_cycle;Max_cycle;Signal;HPM_P1;HPM_P2
2022/12/23 00:02:10;;;;;;;92.95;34.67;;;6.90;99.90;;;;;;4983413;28;20042;-77
2022/12/23 00:04:36;;;;;;;78.97;34.63;;;6.90;99.90;;;;;;4966319;28;20489;-77
2022/12/23 00:07:02;;;;;;;73.68;32.90;;;6.90;99.90;;;;;;4968162;28;20132;-77
2022/12/23 00:09:27;;;;;;;75.05;33.95;;;7.00;99.90;;;;;;4968184;28;20051;-77
2022/12/23 00:17:21;;;;;;;89.43;40.42;;;7.00;99.90;;;;;;4967213;28;20078;-77
2022/12/23 00:19:47;;;;;;;84.90;38.45;;;7.00;99.90;;;;;;4969768;28;20070;-77
2022/12/23 00:22:12;;;;;;;76.70;37.65;;;7.00;99.90;;;;;;4967753;28;20069;-77
2022/12/23 00:24:38;;;;;;;75.60;37.47;;;7.10;99.90;;;;;;4967002;28;20385;-77
2022/12/23 00:27:03;;;;;;;87.40;38.70;;;7.00;99.90;;;;;;4967032;28;20058;-77
2022/12/23 00:29:29;;;;;;;78.70;38.20;;;7.10;99.90;;;;;;4968002;28;20046;-77
2022/12/23 00:31:55;;;;;;;82.20;38.38;;;7.00;99.90;;;;;;4984548;28;20069;-77
2022/12/23 00:34:20;;;;;;;89.00;38.53;;;7.10;99.90;;;;;;4986664;28;20125;-77
2022/12/23 00:36:46;;;;;;;138.50;46.42;;;7.10;99.90;;;;;;4986529;28;20086;-77
2022/12/23 00:44:40;;;;;;;97.03;39.17;;;7.10;99.90;;;;;;4967938;28;20417;-77
2022/12/23 00:47:06;;;;;;;118.25;45.17;;;7.10;99.90;;;;;;4969412;28;20054;-77
2022/12/23 00:49:41;;;;;;;99.90;41.97;;;7.10;99.90;;;;;;4971327;28;20118;-76
2022/12/23 00:52:10;;;;;;;98.85;40.78;;;7.10;99.90;;;;;;4971778;28;20070;-76
2022/12/23 00:54:36;;;;;;;93.45;38.63;;;7.10;99.90;;;;;;4971902;28;20086;-77
2022/12/23 00:57:02;;;;;;;96.70;43.85;;;7.10;99.90;;;;;;4971416;28;20073;-77
2022/12/23 00:59:27;;;;;;;113.85;44.17;;;7.10;99.90;;;;;;4971506;28;20086;-77
2022/12/23 01:07:22;;;;;;;74.90;35.25;;;7.10;99.90;;;;;;4970312;28;20050;-77
2022/12/23 01:09:47;;;;;;;102.35;38.15;;;7.10;99.90;;;;;;4971912;28;20114;-77
2022/12/23 01:12:13;;;;;;;80.03;34.13;;;7.10;99.90;;;;;;4971527;28;20391;-77
2022/12/23 01:14:39;;;;;;;78.20;36.83;;;7.10;99.90;;;;;;4971428;28;20050;-77
2022/12/23 01:17:06;;;;;;;80.55;35.63;;;7.10;99.90;;;;;;4971402;28;20130;-77
2022/12/23 01:19:32;;;;;;;85.47;41.55;;;7.20;99.90;;;;;;4970461;28;20414;-77
2022/12/23 01:21:58;;;;;;;90.15;42.35;;;7.10;99.90;;;;;;4971267;28;20038;-77
2022/12/23 01:24:30;;;;;;;93.90;44.72;;;7.20;99.90;;;;;;4971192;28;20093;-77
2022/12/23 01:26:56;;;;;;;;;;;7.10;99.90;;;;;;4966747;28;20405;-77
2022/12/23 01:29:21;;;;;;;80.28;34.45;;;7.20;99.90;;;;;;4983141;28;19922;-77
2022/12/23 01:31:47;;;;;;;81.00;35.15;;;7.10;99.90;;;;;;4990861;28;20042;-77
2022/12/23 01:34:13;;;;;;;77.25;33.15;;;7.10;99.90;;;;;;4989217;28;20054;-77
2022/12/23 01:36:38;;;;;;;70.78;34.42;;;7.10;99.90;;;;;;4990823;28;20075;-77
2022/12/23 01:39:04;;;;;;;72.30;33.20;;;7.10;99.90;;;;;;4989974;28;20449;-77
2022/12/23 01:45:00;;;;;;;79.18;29.30;;;7.10;99.90;;;;;;4989616;28;20310;-77
2022/12/23 01:47:40;;;;;;;68.07;27.50;;;7.10;99.90;;;;;;4972514;28;20054;-77
2022/12/23 01:50:35;;;;;;;64.40;31.65;;;7.10;99.90;;;;;;4989300;28;20050;-77
2022/12/23 01:53:16;;;;;;;61.13;28.10;;;7.10;99.90;;;;;;4987844;28;20580;-77
2022/12/23 01:55:54;;;;;;;60.92;27.65;;;7.10;99.90;;;;;;4966599;28;20178;-77
2022/12/23 01:58:37;;;;;;;60.22;23.92;;;7.10;99.90;;;;;;4968865;28;20051;-77
2022/12/23 02:03:53;;;;;;;63.60;25.48;;;7.00;99.90;;;;;;4967316;28;20067;-77
2022/12/23 02:09:18;;;;;;;54.53;23.08;;;7.10;99.90;;;;;;4969306;28;20912;-77
2022/12/23 02:11:52;;;;;;;61.17;24.60;;;7.00;99.90;;;;;;4969505;28;20521;-76
2022/12/23 02:17:30;;;;;;;62.55;25.92;;;7.00;99.90;;;;;;4969289;28;20086;-77
2022/12/23 02:20:11;;;;;;;45.25;20.83;;;7.00;99.90;;;;;;4968021;28;20042;-77
2022/12/23 02:23:08;;;;;;;49.72;20.77;;;7.00;99.90;;;;;;4969271;28;20051;-77
2022/12/23 02:25:46;;;;;;;56.33;26.27;;;7.00;99.90;;;;;;4969389;28;20038;-76
2022/12/23 02:28:34;;;;;;;54.47;24.88;;;7.00;99.90;;;;;;4974058;28;20106;-77
2022/12/23 02:31:24;;;;;;;58.38;24.58;;;7.00;99.90;;;;;;4987904;28;20046;-77
2022/12/23 02:33:57;;;;;;;56.45;25.67;;;7.00;99.90;;;;;;4987289;28;20493;-77
2022/12/23 02:36:28;;;;;;;73.10;30.70;;;7.00;99.90;;;;;;4988406;28;20049;-77
2022/12/23 02:39:16;;;;;;;47.47;22.95;;;6.90;99.90;;;;;;4983510;28;20074;-77
2022/12/23 02:41:47;;;;;;;57.22;23.77;;;6.90;99.90;;;;;;4968893;28;20086;-76
2022/12/23 02:44:21;;;;;;;62.60;26.60;;;7.00;99.90;;;;;;4968572;28;20058;-77
2022/12/23 02:46:58;;;;;;;61.60;25.75;;;7.00;99.90;;;;;;4967741;28;20042;-77
2022/12/23 02:49:34;;;;;;;69.20;31.25;;;6.90;99.90;;;;;;4966972;28;20125;-77
2022/12/23 02:52:04;;;;;;;75.53;30.17;;;7.00;99.90;;;;;;4968162;28;20038;-77
2022/12/23 02:54:36;;;;;;;56.20;26.58;;;6.90;99.90;;;;;;4933267;28;1054581;-77
2022/12/23 02:57:04;;;;;;;77.70;33.50;;;7.00;99.90;;;;;;4984075;28;20042;-77
2022/12/23 02:59:37;;;;;;;84.78;32.00;;;7.00;99.90;;;;;;4969416;28;20053;-77
2022/12/23 03:02:03;;;;;;;68.40;28.00;;;7.00;99.90;;;;;;4969370;28;20568;-77
2022/12/23 03:04:29;;;;;;;63.78;28.58;;;6.90;99.90;;;;;;4968726;28;20046;-77
2022/12/23 03:06:55;;;;;;;59.00;34.35;;;6.90;99.90;;;;;;4969195;28;20046;-77
2022/12/23 03:09:35;;;;;;;91.55;33.17;;;7.00;99.90;;;;;;4968691;28;20043;-76
2022/12/23 03:12:29;;;;;;;67.25;30.25;;;7.00;99.90;;;;;;4969101;28;20084;-77
2022/12/23 03:15:32;;;;;;;57.55;27.50;;;6.90;99.90;;;;;;4968799;28;20058;-77
2022/12/23 03:18:10;;;;;;;60.58;25.52;;;6.90;99.90;;;;;;4970132;28;20054;-76
2022/12/23 03:21:05;;;;;;;59.35;24.50;;;6.90;99.90;;;;;;4968340;28;20039;-76
2022/12/23 03:23:39;;;;;;;63.20;27.90;;;6.90;99.90;;;;;;4967681;28;20078;-76
2022/12/23 03:26:15;;;;;;;49.20;27.38;;;6.90;99.90;;;;;;4973243;28;20050;-76
2022/12/23 03:28:52;;;;;;;53.13;24.95;;;6.90;99.90;;;;;;4969247;28;20047;-77
2022/12/23 03:31:23;;;;;;;62.65;26.90;;;6.90;99.90;;;;;;4969330;28;20464;-77
2022/12/23 03:33:56;;;;;;;56.03;23.35;;;6.90;99.90;;;;;;4967886;28;20093;-77
2022/12/23 03:36:26;;;;;;;52.45;23.15;;;6.90;99.90;;;;;;4968962;28;20097;-77
2022/12/23 03:38:54;;;;;;;60.50;26.75;;;6.90;99.90;;;;;;4968677;28;20035;-77
2022/12/23 03:41:34;;;;;;;52.03;24.85;;;7.00;99.90;;;;;;4969374;28;20082;-76
2022/12/23 03:44:07;;;;;;;59.25;23.42;;;6.90;99.90;;;;;;4968543;28;20047;-76
2022/12/23 03:46:46;;;;;;;81.53;29.33;;;6.90;99.90;;;;;;4968744;28;20049;-77
2022/12/23 03:49:29;;;;;;;56.65;22.13;;;7.00;99.90;;;;;;4967785;28;20116;-76
2022/12/23 03:52:12;;;;;;;46.90;21.10;;;6.90;99.90;;;;;;4967112;28;20055;-76
2022/12/23 03:54:53;;;;;;;62.72;27.48;;;6.90;99.90;;;;;;4968451;28;20141;-76
2022/12/23 03:57:21;;;;;;;62.30;25.27;;;6.90;99.90;;;;;;4967366;28;20046;-77
2022/12/23 03:59:52;;;;;;;85.97;28.35;;;6.80;99.90;;;;;;4968771;28;20043;-76
2022/12/23 04:02:26;;;;;;;86.90;30.38;;;6.80;99.90;;;;;;4967395;28;20046;-76
2022/12/23 04:05:10;;;;;;;60.40;25.52;;;6.80;99.90;;;;;;4967337;28;20054;-77
2022/12/23 04:07:57;;;;;;;62.60;24.08;;;6.80;99.90;;;;;;4968517;28;20051;-77
2022/12/23 04:10:23;;;;;;;53.95;23.92;;;6.80;99.90;;;;;;4967129;28;20580;-76
2022/12/23 04:12:50;;;;;;;45.17;22.75;;;6.80;99.90;;;;;;4967782;28;20035;-77
2022/12/23 04:15:24;;;;;;;66.68;24.63;;;6.80;99.90;;;;;;4968403;28;20490;-76
2022/12/23 04:17:51;;;;;;;94.22;28.27;;;6.80;99.90;;;;;;4968391;28;20052;-77
2022/12/23 04:20:17;;;;;;;73.10;23.65;;;6.70;99.90;;;;;;4967703;28;20054;-76
2022/12/23 04:22:43;;;;;;;95.28;25.83;;;6.70;99.90;;;;;;4966953;28;20046;-76
2022/12/23 04:25:10;;;;;;;53.42;22.75;;;6.70;99.90;;;;;;4982884;28;20042;-76
2022/12/23 04:27:36;;;;;;;40.38;18.02;;;6.70;99.90;;;;;;4973094;28;20050;-76
2022/12/23 04:30:03;;;;;;;64.25;24.45;;;6.70;99.90;;;;;;4967849;28;20048;-76
2022/12/23 04:32:28;;;;;;;61.60;19.63;;;6.70;99.90;;;;;;4967873;28;20094;-76
2022/12/23 04:34:54;;;;;;;50.42;18.35;;;6.60;99.90;;;;;;4967114;28;20545;-77
2022/12/23 04:37:20;;;;;;;94.95;24.38;;;6.60;99.90;;;;;;4967067;28;20351;-76
2022/12/23 04:39:45;;;;;;;124.10;29.98;;;6.60;99.90;;;;;;4968203;28;20105;-76
2022/12/23 04:42:11;;;;;;;66.50;21.40;;;6.70;99.90;;;;;;4967910;28;20489;-76
2022/12/23 04:44:36;;;;;;;94.25;23.45;;;6.60;99.90;;;;;;4966923;28;20255;-76
2022/12/23 04:47:02;;;;;;;111.70;27.60;;;6.60;99.90;;;;;;4967769;28;20453;-76
2022/12/23 04:49:27;;;;;;;91.75;23.13;;;6.60;99.90;;;;;;4967056;28;20042;-77
2022/12/23 04:51:53;;;;;;;107.72;27.73;;;6.60;99.90;;;;;;4967689;28;20074;-77
2022/12/23 04:54:18;;;;;;;150.55;30.70;;;6.60;99.90;;;;;;4966336;28;20062;-77
2022/12/23 04:56:44;;;;;;;153.65;31.67;;;6.60;99.90;;;;;;4968177;28;20047;-76
2022/12/23 04:59:10;;;;;;;151.40;30.90;;;6.60;99.90;;;;;;4967450;28;20077;-77
2022/12/23 05:01:35;;;;;;;150.10;29.35;;;6.60;99.90;;;;;;4968010;28;20066;-76
2022/12/23 05:04:01;;;;;;;139.65;29.02;;;6.60;99.90;;;;;;4966796;28;20039;-76
2022/12/23 05:06:27;;;;;;;123.72;24.40;;;6.60;99.90;;;;;;4967771;28;20042;-76
2022/12/23 05:08:52;;;;;;;137.05;28.63;;;6.60;99.90;;;;;;4966196;28;20500;-76
2022/12/23 05:11:18;;;;;;;94.72;21.65;;;6.50;99.90;;;;;;4967987;28;20477;-76
2022/12/23 05:13:44;;;;;;;110.63;23.20;;;6.50;99.90;;;;;;4967719;28;20051;-76
2022/12/23 05:16:09;;;;;;;117.85;24.77;;;6.50;99.90;;;;;;4966691;28;20039;-76
2022/12/23 05:18:35;;;;;;;53.33;16.75;;;6.50;99.90;;;;;;4966946;28;20054;-76
2022/12/23 05:21:00;;;;;;;76.60;21.60;;;6.50;99.90;;;;;;4967292;28;20126;-76
2022/12/23 05:23:26;;;;;;;55.67;16.42;;;6.50;99.90;;;;;;4967692;28;20065;-76
2022/12/23 05:25:52;;;;;;;52.97;15.30;;;6.50;99.90;;;;;;4967346;28;20039;-76
2022/12/23 05:28:19;;;;;;;88.38;20.35;;;6.50;99.90;;;;;;4967966;28;20452;-76
2022/12/23 05:30:45;;;;;;;78.60;21.90;;;6.60;99.90;;;;;;4967348;28;20126;-76
2022/12/23 05:33:11;;;;;;;92.72;23.33;;;6.60;99.90;;;;;;4968186;28;20125;-76
2022/12/23 05:35:36;;;;;;;30.77;12.55;;;6.50;99.90;;;;;;4971383;28;20503;-76
2022/12/23 05:38:02;;;;;;;27.98;12.05;;;6.50;99.90;;;;;;4970809;28;20528;-76
2022/12/23 05:40:28;;;;;;;43.38;16.33;;;6.60;99.90;;;;;;4969956;28;20046;-77
2022/12/23 05:42:54;;;;;;;34.28;14.32;;;6.60;99.90;;;;;;4970774;28;20100;-76
2022/12/23 05:45:20;;;;;;;42.20;13.57;;;6.60;99.90;;;;;;4971264;28;20512;-76
2022/12/23 05:47:45;;;;;;;51.83;14.80;;;6.50;99.90;;;;;;4971359;28;20051;-76
2022/12/23 05:50:11;;;;;;;45.95;14.20;;;6.50;99.90;;;;;;4975477;28;20030;-78
2022/12/23 05:52:37;;;;;;;29.85;12.95;;;6.50;99.90;;;;;;4970926;28;20082;-76
2022/12/23 05:55:04;;;;;;;33.85;11.75;;;6.50;99.90;;;;;;4970461;28;20429;-76
2022/12/23 05:57:31;;;;;;;24.83;10.48;;;6.50;99.90;;;;;;4969745;28;20147;-76
2022/12/23 05:59:57;;;;;;;31.63;12.60;;;6.50;99.90;;;;;;4970512;28;20516;-76
2022/12/23 06:02:23;;;;;;;32.78;13.27;;;6.50;99.90;;;;;;4970521;28;20560;-76
2022/12/23 06:04:48;;;;;;;26.42;11.30;;;6.50;99.90;;;;;;4969732;28;20071;-76
2022/12/23 06:07:14;;;;;;;27.75;11.75;;;6.50;99.90;;;;;;4970860;28;20490;-76
2022/12/23 06:09:40;;;;;;;27.50;10.88;;;6.50;99.90;;;;;;4971101;28;20050;-76
2022/12/23 06:12:05;;;;;;;22.83;10.40;;;6.50;99.90;;;;;;4965829;28;20039;-76
2022/12/23 06:14:31;;;;;;;30.33;13.60;;;6.50;99.90;;;;;;4970364;28;20050;-75
2022/12/23 06:16:56;;;;;;;18.60;10.15;;;6.50;99.90;;;;;;4973984;28;20047;-75
2022/12/23 06:19:22;;;;;;;19.70;10.27;;;6.50;99.90;;;;;;4969022;28;20061;-75
2022/12/23 06:21:48;;;;;;;18.02;10.20;;;6.50;99.90;;;;;;4967852;28;20050;-75
2022/12/23 06:24:13;;;;;;;18.42;9.80;;;6.50;99.90;;;;;;4963883;28;20055;-75
2022/12/23 06:26:39;;;;;;;11.90;8.25;;;6.50;99.90;;;;;;4958179;28;20130;-75
2022/12/23 06:29:05;;;;;;;14.85;8.45;;;6.50;99.90;;;;;;4951958;28;20059;-75
2022/12/23 06:31:30;;;;;;;21.17;9.00;;;6.50;99.90;;;;;;4969153;28;20409;-75
2022/12/23 06:33:56;;;;;;;10.55;7.75;;;6.50;99.90;;;;;;4968656;28;20043;-75
2022/12/23 06:36:21;;;;;;;21.85;10.32;;;6.60;99.90;;;;;;4951760;28;20047;-76
2022/12/23 06:38:47;;;;;;;16.80;10.93;;;6.50;99.90;;;;;;4970993;28;20043;-76
2022/12/23 06:41:12;;;;;;;17.40;8.50;;;6.50;99.90;;;;;;4968780;28;20052;-76
2022/12/23 06:43:38;;;;;;;23.35;11.07;;;6.50;99.90;;;;;;4969520;28;20055;-77
2022/12/23 06:46:03;;;;;;;17.70;9.30;;;6.50;99.90;;;;;;4969891;28;20410;-76
2022/12/23 06:48:29;;;;;;;22.67;10.38;;;6.50;99.90;;;;;;4969174;28;20050;-76
2022/12/23 06:50:55;;;;;;;15.60;8.70;;;6.50;99.90;;;;;;4969267;28;20121;-76
2022/12/23 06:53:20;;;;;;;20.27;10.88;;;6.50;99.90;;;;;;4968905;28;20047;-76
2022/12/23 06:55:46;;;;;;;24.15;10.57;;;6.50;99.90;;;;;;4969637;28;20575;-76
2022/12/23 06:58:11;;;;;;;25.35;11.68;;;6.50;99.90;;;;;;4969612;28;20041;-76
2022/12/23 07:00:37;;;;;;;26.50;11.52;;;6.50;99.90;;;;;;4968314;28;20485;-76
2022/12/23 07:03:03;;;;;;;27.40;11.68;;;6.50;99.90;;;;;;4968301;28;20047;-76
2022/12/23 07:05:28;;;;;;;24.65;12.18;;;6.50;99.90;;;;;;4969520;28;20478;-76
2022/12/23 07:07:54;;;;;;;31.25;12.70;;;6.50;99.90;;;;;;4968570;28;20049;-76
2022/12/23 07:10:19;;;;;;;24.27;11.93;;;6.50;99.90;;;;;;4968353;28;20042;-76
2022/12/23 07:12:45;;;;;;;21.20;9.38;;;6.50;99.90;;;;;;4968830;28;20394;-76
2022/12/23 07:15:11;;;;;;;21.13;9.45;;;6.50;99.90;;;;;;4967457;28;20097;-77
2022/12/23 07:17:36;;;;;;;17.92;9.65;;;6.50;99.90;;;;;;4967960;28;20054;-79
2022/12/23 07:20:02;;;;;;;22.30;10.93;;;6.50;99.90;;;;;;4967540;28;20553;-76
2022/12/23 07:22:28;;;;;;;24.75;10.73;;;6.50;99.90;;;;;;4968276;28;20038;-77
2022/12/23 07:24:54;;;;;;;20.27;8.82;;;6.50;99.90;;;;;;4968789;28;20047;-76
2022/12/23 07:27:19;;;;;;;18.40;9.85;;;6.50;99.90;;;;;;4965024;28;20465;-76
2022/12/23 07:29:45;;;;;;;26.40;13.02;;;6.50;99.90;;;;;;4956487;28;20042;-76
2022/12/23 07:32:10;;;;;;;24.17;9.57;;;6.50;99.90;;;;;;4965571;28;20122;-76
2022/12/23 07:34:36;;;;;;;30.02;9.57;;;6.50;99.90;;;;;;4968005;28;20047;-77
2022/12/23 07:37:01;;;;;;;19.10;10.38;;;6.50;99.90;;;;;;4963766;28;20042;-77
2022/12/23 07:39:27;;;;;;;20.75;10.82;;;6.50;99.90;;;;;;4965179;28;20625;-78
2022/12/23 07:41:53;;;;;;;21.95;11.73;;;6.50;99.90;;;;;;4969030;28;20105;-77
2022/12/23 07:44:18;;;;;;;23.88;10.90;;;6.50;99.90;;;;;;4967252;28;20131;-76
2022/12/23 07:46:44;;;;;;;24.90;11.95;;;6.50;99.90;;;;;;4957872;28;20469;-77
2022/12/23 07:49:09;;;;;;;23.67;11.50;;;6.50;99.90;;;;;;4967563;28;20108;-77
2022/12/23 07:51:35;;;;;;;28.48;11.32;;;6.50;99.90;;;;;;4967809;28;20088;-77
2022/12/23 07:54:00;;;;;;;21.35;10.20;;;6.40;99.90;;;;;;4958749;28;20079;-77
2022/12/23 07:56:26;;;;;;;21.92;9.38;;;6.40;99.90;;;;;;4956300;28;20049;-77
2022/12/23 07:58:52;;;;;;;28.38;9.05;;;6.40;99.90;;;;;;4966807;28;20429;-78
2022/12/23 08:01:18;;;;;;;31.88;10.80;;;6.40;99.90;;;;;;4968554;28;20039;-78
2022/12/23 08:03:45;;;;;;;34.03;11.68;;;6.40;99.90;;;;;;4962232;28;20066;-77
2022/12/23 08:06:12;;;;;;;21.25;8.23;;;6.40;99.90;;;;;;4953867;28;20079;-77
2022/12/23 08:08:40;;;;;;;30.77;10.77;;;6.40;99.90;;;;;;4967431;28;20093;-78
2022/12/23 08:11:08;;;;;;;23.15;9.57;;;6.40;99.90;;;;;;4968175;28;20347;-78
2022/12/23 08:13:35;;;;;;;23.27;10.48;;;6.40;99.90;;;;;;4968000;28;20490;-79
2022/12/23 08:16:03;;;;;;;32.70;11.65;;;6.40;99.90;;;;;;4958621;28;20220;-77
2022/12/23 08:18:30;;;;;;;21.55;10.13;;;6.40;99.90;;;;;;4963572;28;20049;-78
2022/12/23 08:21:26;;;;;;;21.42;8.85;;;6.40;99.90;;;;;;4967415;28;20497;-77
2022/12/23 08:23:52;;;;;;;15.80;8.02;;;6.40;99.90;;;;;;4963167;28;20051;-77
2022/12/23 08:26:20;;;;;;;26.33;10.98;;;6.40;99.90;;;;;;4966416;28;20048;-77
2022/12/23 08:28:47;;;;;;;24.42;11.25;;;6.40;99.90;;;;;;4935484;28;20726;-77
2022/12/23 08:31:20;;;;;;;25.58;13.18;;;6.40;99.90;;;;;;4970560;28;20043;-80
2022/12/23 08:33:49;;;;;;;20.20;10.13;;;6.40;99.90;;;;;;4966755;28;20068;-77
2022/12/23 08:36:20;;;;;;;27.98;11.75;;;6.40;99.90;;;;;;4948974;29;20047;-78
2022/12/23 08:38:46;;;;;;;24.55;9.88;;;6.40;99.90;;;;;;4958322;28;20460;-79
2022/12/23 08:41:17;;;;;;;28.40;11.65;;;6.40;99.90;;;;;;4966055;28;20118;-76
2022/12/23 08:43:44;;;;;;;20.67;9.95;;;6.40;99.90;;;;;;4976124;28;20042;-77
2022/12/23 08:46:10;;;;;;;26.42;11.38;;;6.40;99.90;;;;;;4960769;28;20035;-79
2022/12/23 08:48:36;;;;;;;27.80;12.85;;;6.40;99.90;;;;;;4966044;28;20047;-77
2022/12/23 08:51:09;;;;;;;31.20;12.85;;;6.40;99.90;;;;;;4963772;28;20047;-76
2022/12/23 08:53:35;;;;;;;35.50;10.38;;;6.40;99.90;;;;;;4962296;28;20047;-77
2022/12/23 08:56:07;;;;;;;42.05;14.98;;;6.40;99.90;;;;;;4966609;28;20130;-77
2022/12/23 08:58:37;;;;;;;23.65;11.75;;;6.50;99.90;;;;;;4967696;28;20082;-77
2022/12/23 09:01:04;;;;;;;22.40;11.55;;;6.40;99.90;;;;;;4967533;28;20035;-77
2022/12/23 09:03:30;;;;;;;22.42;11.15;;;6.50;99.90;;;;;;4967293;28;20043;-77
2022/12/23 09:05:55;;;;;;;28.35;11.52;;;6.50;99.90;;;;;;4967343;28;20039;-77
2022/12/23 09:08:21;;;;;;;37.88;14.98;;;6.50;99.90;;;;;;4969829;28;20513;-77
2022/12/23 09:10:47;;;;;;;38.97;13.27;;;6.50;99.90;;;;;;4972374;28;20077;-77
2022/12/23 09:13:12;;;;;;;36.28;14.63;;;6.50;99.90;;;;;;4969114;28;20050;-77
2022/12/23 09:15:42;;;;;;;35.78;13.13;;;6.50;99.90;;;;;;4970605;28;20055;-77
2022/12/23 09:18:09;;;;;;;26.67;11.05;;;6.50;99.90;;;;;;4969726;28;20035;-77
2022/12/23 09:20:35;;;;;;;44.55;14.35;;;6.60;99.90;;;;;;4968776;28;20043;-81
2022/12/23 09:23:01;;;;;;;35.15;12.25;;;6.50;99.90;;;;;;4971071;28;20049;-81
2022/12/23 09:25:27;;;;;;;38.55;14.45;;;6.60;99.90;;;;;;4962698;28;20078;-79
2022/12/23 09:27:52;;;;;;;22.35;10.50;;;6.60;99.90;;;;;;4948806;28;20486;-79
2022/12/23 09:30:18;;;;;;;26.80;13.82;;;6.60;99.90;;;;;;4966043;28;20418;-80
2022/12/23 09:32:43;;;;;;;38.28;14.65;;;6.60;99.90;;;;;;4964532;28;20050;-79
2022/12/23 09:35:09;;;;;;;35.50;14.20;;;6.70;99.90;;;;;;4970265;28;20493;-79
2022/12/23 09:37:35;;;;;;;28.42;13.05;;;6.70;99.90;;;;;;4969744;28;20039;-79
2022/12/23 09:40:02;;;;;;;20.77;12.82;;;6.70;99.90;;;;;;4969720;28;20098;-79
2022/12/23 09:42:45;;;;;;;31.55;13.70;;;6.70;99.90;;;;;;4970541;28;20113;-80
2022/12/23 09:45:15;;;;;;;42.67;16.92;;;6.80;99.90;;;;;;4966963;28;20450;-80
2022/12/23 09:47:43;;;;;;;44.47;17.58;;;6.80;99.90;;;;;;4961260;28;20054;-80
2022/12/23 09:50:22;;;;;;;37.38;16.70;;;6.80;99.90;;;;;;4969111;28;20105;-80
2022/12/23 09:52:53;;;;;;;39.63;15.60;;;6.80;99.90;;;;;;4965809;28;20090;-80
2022/12/23 09:55:23;;;;;;;33.85;13.95;;;6.90;99.90;;;;;;4969741;28;20057;-80
2022/12/23 09:57:59;;;;;;;36.05;14.57;;;6.80;99.90;;;;;;4971191;28;20047;-80
2022/12/23 10:00:30;;;;;;;28.80;14.10;;;6.90;99.90;;;;;;4966743;28;20426;-81
2022/12/23 10:03:22;;;;;;;24.75;10.80;;;6.90;99.90;;;;;;4966449;28;20046;-81
2022/12/23 10:06:10;;;;;;;26.65;12.13;;;6.90;99.90;;;;;;4969173;28;20042;-80
2022/12/23 10:08:45;;;;;;;34.58;14.18;;;6.90;99.90;;;;;;4966429;28;20090;-80
2022/12/23 10:11:19;;;;;;;21.08;10.93;;;6.90;99.90;;;;;;4969125;28;20046;-80
2022/12/23 10:13:49;;;;;;;30.23;11.48;;;7.00;99.90;;;;;;4955868;28;20094;-82
2022/12/23 10:16:17;;;;;;;25.10;11.77;;;7.00;99.90;;;;;;4970189;28;20050;-81
2022/12/23 10:19:03;;;;;;;31.02;12.07;;;7.00;99.90;;;;;;4968964;28;20126;-84
2022/12/23 10:21:43;;;;;;;14.50;8.63;;;7.00;99.90;;;;;;4953950;28;20047;-81
2022/12/23 10:24:15;;;;;;;21.85;9.32;;;7.00;99.90;;;;;;4955704;28;20038;-83
2022/12/23 10:27:19;;;;;;;30.83;11.57;;;7.00;99.90;;;;;;4969459;28;20042;-82
2022/12/23 10:29:45;;;;;;;35.65;9.77;;;7.00;99.90;;;;;;4968445;28;20066;-85
2022/12/23 10:32:38;;;;;;;33.15;9.50;;;7.00;99.90;;;;;;4968296;28;20070;-84
2022/12/23 10:35:04;;;;;;;26.42;9.90;;;7.10;99.90;;;;;;4970305;28;20111;-82
2022/12/23 10:37:56;;;;;;;17.90;9.30;;;7.10;99.90;;;;;;4969818;28;20493;-82
2022/12/23 10:40:27;;;;;;;18.60;10.38;;;7.10;99.90;;;;;;4956144;28;20039;-82
2022/12/23 10:43:07;;;;;;;27.58;9.27;;;7.10;99.90;;;;;;4969654;28;20051;-83
2022/12/23 10:45:59;;;;;;;13.70;8.15;;;7.10;99.90;;;;;;4968992;28;20051;-82
2022/12/23 10:48:55;;;;;;;18.50;9.52;;;7.10;99.90;;;;;;4949977;28;20042;-82
2022/12/23 10:51:23;;;;;;;14.57;8.55;;;7.20;99.90;;;;;;4967491;28;20047;-83
2022/12/23 10:53:54;;;;;;;19.73;8.95;;;7.20;99.90;;;;;;4969391;28;20054;-83
2022/12/23 10:56:20;;;;;;;18.10;9.65;;;7.20;99.90;;;;;;4967628;28;20043;-82
2022/12/23 10:58:51;;;;;;;22.55;9.88;;;7.20;99.90;;;;;;4970523;28;20066;-82
2022/12/23 11:01:18;;;;;;;23.05;10.15;;;7.20;99.90;;;;;;4967621;28;20053;-82
2022/12/23 11:04:07;;;;;;;19.27;9.52;;;7.20;99.90;;;;;;4956965;28;20138;-82
2022/12/23 11:06:38;;;;;;;24.40;10.70;;;7.20;99.90;;;;;;4967898;28;20109;-82
2022/12/23 11:09:05;;;;;;;16.58;10.27;;;7.30;99.90;;;;;;4968462;28;20394;-83
2022/12/23 11:11:58;;;;;;;15.95;9.20;;;7.30;99.90;;;;;;4969455;28;20038;-82
2022/12/23 11:14:31;;;;;;;24.50;10.30;;;7.30;99.90;;;;;;4949461;29;20043;-83
2022/12/23 11:16:57;;;;;;;29.02;9.63;;;7.30;99.90;;;;;;4962631;28;20104;-83
2022/12/23 11:19:22;;;;;;;18.30;7.78;;;7.30;99.90;;;;;;4968358;28;20153;-82
2022/12/23 11:21:59;;;;;;;16.88;9.18;;;7.40;99.90;;;;;;4952043;28;20402;-82
2022/12/23 11:24:27;;;;;;;18.00;10.98;;;7.40;99.90;;;;;;4968758;28;20042;-82
2022/12/23 11:27:04;;;;;;;21.63;9.38;;;7.40;99.90;;;;;;4955725;28;20039;-82
2022/12/23 11:29:37;;;;;;;22.33;9.55;;;7.40;99.90;;;;;;4950409;28;20093;-82
2022/12/23 11:32:15;;;;;;;20.63;10.32;;;7.40;99.90;;;;;;4967884;28;20038;-82
2022/12/23 11:34:44;;;;;;;23.83;12.43;;;7.40;99.90;;;;;;4967589;28;20078;-82
2022/12/23 11:37:24;;;;;;;25.55;12.00;;;7.40;99.90;;;;;;4955409;28;20468;-82
2022/12/23 11:39:50;;;;;;;20.73;10.95;;;7.40;99.90;;;;;;4947161;29;20047;-81
2022/12/23 11:42:19;;;;;;;22.80;11.52;;;7.40;99.90;;;;;;4952200;28;20074;-82
2022/12/23 11:44:48;;;;;;;25.05;11.52;;;7.40;99.90;;;;;;4969135;28;20046;-80
2022/12/23 11:47:21;;;;;;;22.02;13.02;;;7.40;99.90;;;;;;4966964;28;20799;-82
2022/12/23 11:49:53;;;;;;;22.45;11.75;;;7.40;99.90;;;;;;4968910;28;20502;-82
2022/12/23 11:52:21;;;;;;;27.80;12.25;;;7.40;99.90;;;;;;4966397;28;20042;-81
2022/12/23 11:54:53;;;;;;;24.75;13.07;;;7.40;99.90;;;;;;4966570;28;20046;-83
2022/12/23 11:57:42;;;;;;;22.17;11.45;;;7.40;99.90;;;;;;4967637;28;20050;-83
2022/12/23 12:00:19;;;;;;;31.92;13.55;;;7.30;99.90;;;;;;4967363;28;20111;-82
2022/12/23 12:02:49;;;;;;;22.85;11.98;;;7.30;99.90;;;;;;4965765;28;20055;-83
2022/12/23 12:05:26;;;;;;;24.88;13.48;;;7.40;99.90;;;;;;4951243;28;20047;-83
2022/12/23 12:07:58;;;;;;;27.52;11.65;;;7.40;99.90;;;;;;4949455;28;20452;-83
2022/12/23 12:10:27;;;;;;;21.33;12.35;;;7.40;99.90;;;;;;4967837;28;20047;-82
2022/12/23 12:12:58;;;;;;;27.23;12.80;;;7.40;99.90;;;;;;4968137;28;20043;-79
2022/12/23 12:15:45;;;;;;;25.92;13.70;;;7.40;99.90;;;;;;4966448;28;20045;-79
2022/12/23 12:18:15;;;;;;;26.17;11.52;;;7.40;99.90;;;;;;4966099;28;20043;-79
2022/12/23 12:20:45;;;;;;;22.65;9.73;;;7.40;99.90;;;;;;4967230;28;20117;-79
2022/12/23 12:23:23;;;;;;;21.42;11.48;;;7.40;99.90;;;;;;4966095;28;20154;-79
2022/12/23 12:26:00;;;;;;;22.77;11.77;;;7.40;99.90;;;;;;4967378;28;20042;-79
2022/12/23 12:28:42;;;;;;;21.52;10.52;;;7.40;99.90;;;;;;4949890;28;20072;-79
2022/12/23 12:31:16;;;;;;;28.73;11.73;;;7.40;99.90;;;;;;4967090;28;20088;-78
2022/12/23 12:33:48;;;;;;;27.55;12.00;;;7.40;99.90;;;;;;4965089;28;20047;-79
2022/12/23 12:36:24;;;;;;;26.88;11.75;;;7.40;99.90;;;;;;4967321;28;20051;-79
2022/12/23 12:38:53;;;;;;;20.33;9.90;;;7.40;99.90;;;;;;4964386;28;20039;-79
2022/12/23 12:41:28;;;;;;;32.25;13.68;;;7.50;99.90;;;;;;4966856;28;20051;-79
2022/12/23 12:44:11;;;;;;;18.30;8.98;;;7.40;99.90;;;;;;4958833;28;20051;-79
2022/12/23 12:46:48;;;;;;;20.60;9.40;;;7.40;99.90;;;;;;4967139;28;20039;-79
2022/12/23 12:49:37;;;;;;;18.90;9.57;;;7.40;99.90;;;;;;4966088;28;20047;-79
2022/12/23 12:52:20;;;;;;;23.70;10.85;;;7.40;99.90;;;;;;4968241;28;20572;-79
2022/12/23 12:55:06;;;;;;;23.33;11.48;;;7.40;99.90;;;;;;4929462;29;20098;-79
2022/12/23 12:57:34;;;;;;;19.73;10.93;;;7.40;99.90;;;;;;4929011;29;20048;-80
2022/12/23 13:00:01;;;;;;;23.60;11.15;;;7.40;99.90;;;;;;4929577;29;20027;-78
2022/12/23 13:02:54;;;;;;;24.67;9.45;;;7.40;99.90;;;;;;4928080;29;20404;-79
2022/12/23 13:05:34;;;;;;;23.15;8.88;;;7.40;99.90;;;;;;4927949;29;20043;-79
2022/12/23 13:08:12;;;;;;;18.08;9.00;;;7.40;99.90;;;;;;4910106;29;20051;-79
2022/12/23 13:11:00;;;;;;;15.45;9.63;;;7.50;99.90;;;;;;4928179;29;20047;-79
2022/12/23 13:13:34;;;;;;;19.58;10.85;;;7.50;99.90;;;;;;4940657;29;20407;-79
2022/12/23 13:16:20;;;;;;;27.42;10.73;;;7.40;99.90;;;;;;4922380;29;20510;-81
2022/12/23 13:19:00;;;;;;;32.42;12.57;;;7.50;99.90;;;;;;4909488;29;20526;-79
2022/12/23 13:21:38;;;;;;;24.75;13.00;;;7.50;99.90;;;;;;4928776;29;20495;-79
2022/12/23 13:24:18;;;;;;;24.73;11.27;;;7.50;99.90;;;;;;4911784;29;20055;-79
2022/12/23 13:27:04;;;;;;;21.60;10.13;;;7.50;99.90;;;;;;4927584;29;20047;-79